createdAt,value
2022-10-26T00:01:38.744Z,18.30
2022-10-26T00:05:00.831Z,18.30
2022-10-26T00:08:07.824Z,18.30
2022-10-26T00:11:15.446Z,18.30
2022-10-26T00:14:54.518Z,18.30
2022-10-26T00:18:03.300Z,18.20
2022-10-26T00:21:13.603Z,18.30
2022-10-26T00:24:21.317Z,18.30
2022-10-26T00:27:27.027Z,18.20
2022-10-26T00:30:34.710Z,18.20
2022-10-26T00:33:40.145Z,18.20
2022-10-26T00:36:50.350Z,18.30
2022-10-26T00:40:06.562Z,18.20
2022-10-26T00:43:29.739Z,18.20
2022-10-26T00:46:38.154Z,18.30
2022-10-26T00:49:50.055Z,18.30
2022-10-26T00:52:58.921Z,18.20
2022-10-26T00:56:06.683Z,18.20
2022-10-26T00:59:13.662Z,18.30
2022-10-26T01:02:21.171Z,18.30
2022-10-26T01:05:27.315Z,18.20
2022-10-26T01:08:37.652Z,18.20
2022-10-26T01:11:42.817Z,18.20
2022-10-26T01:14:54.280Z,18.20
2022-10-26T01:18:01.007Z,18.20
2022-10-26T01:21:22.818Z,18.20
2022-10-26T01:24:43.459Z,18.20
2022-10-26T01:27:55.664Z,18.20
2022-10-26T01:31:04.783Z,18.20
2022-10-26T01:34:15.681Z,18.20
2022-10-26T01:37:23.884Z,18.20
2022-10-26T01:40:34.308Z,18.20
2022-10-26T01:43:40.979Z,18.10
2022-10-26T01:46:52.702Z,18.20
2022-10-26T01:49:59.393Z,18.20
2022-10-26T01:53:10.016Z,18.10
2022-10-26T01:56:24.463Z,18.10
2022-10-26T01:59:48.479Z,18.10
2022-10-26T02:03:12.825Z,18.20
2022-10-26T02:06:22.753Z,18.10
2022-10-26T02:09:32.808Z,18.20
2022-10-26T02:12:43.107Z,18.20
2022-10-26T02:15:53.117Z,18.20
2022-10-26T02:19:06.304Z,18.10
2022-10-26T02:22:15.446Z,18.20
2022-10-26T02:25:25.946Z,18.20
2022-10-26T02:28:34.598Z,18.10
2022-10-26T02:31:44.256Z,18.20
2022-10-26T02:34:53.076Z,18.20
2022-10-26T02:38:02.894Z,18.10
2022-10-26T02:41:18.931Z,18.10
2022-10-26T02:44:28.200Z,18.20
2022-10-26T02:47:33.992Z,18.10
2022-10-26T02:50:47.280Z,18.10
2022-10-26T02:53:55.081Z,18.10
2022-10-26T02:57:04.210Z,18.10
2022-10-26T03:00:34.240Z,18.10
2022-10-26T03:03:42.266Z,18.10
2022-10-26T03:06:58.213Z,18.10
2022-10-26T03:10:05.624Z,18.10
2022-10-26T03:13:12.164Z,18.10
2022-10-26T03:16:24.911Z,18.10
2022-10-26T03:19:36.106Z,18.10
2022-10-26T03:22:46.696Z,18.10
2022-10-26T03:25:52.373Z,18.10
2022-10-26T03:29:00.097Z,18.10
2022-10-26T03:32:07.881Z,18.10
2022-10-26T03:35:18.282Z,18.10
2022-10-26T03:38:35.350Z,18.10
2022-10-26T03:41:49.281Z,18.10
2022-10-26T03:45:00.279Z,18.10
2022-10-26T03:48:09.309Z,18.10
2022-10-26T03:51:14.574Z,18.10
2022-10-26T03:54:28.330Z,18.10
2022-10-26T03:57:33.888Z,18.10
2022-10-26T04:00:41.485Z,18.10
2022-10-26T04:03:46.930Z,18.10
2022-10-26T04:06:54.956Z,18.10
2022-10-26T04:10:03.325Z,18.10
2022-10-26T04:13:12.195Z,18.10
2022-10-26T04:16:17.776Z,18.10
2022-10-26T04:19:25.373Z,18.10
2022-10-26T04:29:57.348Z,18.10
2022-10-26T04:38:02.798Z,18.10
2022-10-26T04:41:10.368Z,18.10
2022-10-26T04:44:22.223Z,18.10
2022-10-26T04:47:47.115Z,18.10
2022-10-26T04:54:39.979Z,18.10
2022-10-26T04:57:48.054Z,18.10
2022-10-26T05:00:58.144Z,18.10
2022-10-26T05:04:05.582Z,18.10
2022-10-26T05:07:12.879Z,18.10
2022-10-26T05:10:20.051Z,18.10
2022-10-26T05:16:37.554Z,18.10
2022-10-26T05:19:44.770Z,18.10
2022-10-26T05:22:55.989Z,18.10
2022-10-26T05:26:03.240Z,18.10
2022-10-26T05:29:10.422Z,18.10
2022-10-26T05:32:20.428Z,18.10
2022-10-26T05:35:28.501Z,18.10
2022-10-26T05:38:35.851Z,18.10
2022-10-26T05:41:43.395Z,18.00
2022-10-26T05:44:50.669Z,18.00
2022-10-26T05:48:02.869Z,18.10
2022-10-26T05:51:10.975Z,18.00
2022-10-26T05:54:18.374Z,18.00
2022-10-26T05:57:25.948Z,18.00
2022-10-26T06:00:33.552Z,18.00
2022-10-26T06:03:47.803Z,18.10
2022-10-26T06:06:56.871Z,18.00
2022-10-26T06:10:04.297Z,18.10
2022-10-26T06:13:11.691Z,18.00
2022-10-26T06:16:32.722Z,18.00
2022-10-26T06:19:50.366Z,18.00
2022-10-26T06:23:04.121Z,18.00
2022-10-26T06:26:16.541Z,18.00
2022-10-26T06:29:28.051Z,18.00
2022-10-26T06:32:35.409Z,18.10
2022-10-26T06:35:49.445Z,18.10
2022-10-26T06:38:58.756Z,18.10
2022-10-26T06:42:06.716Z,18.10
2022-10-26T06:48:28.602Z,18.20
2022-10-26T06:51:42.284Z,18.20
2022-10-26T06:54:51.741Z,18.30
2022-10-26T06:57:59.435Z,18.20
2022-10-26T07:01:06.898Z,18.20
2022-10-26T07:04:14.356Z,18.20
2022-10-26T07:07:25.248Z,18.10
2022-10-26T07:10:32.493Z,18.20
2022-10-26T07:13:39.611Z,18.20
2022-10-26T07:16:51.973Z,18.20
2022-10-26T07:20:00.186Z,18.20
2022-10-26T07:23:16.191Z,18.10
2022-10-26T07:26:50.389Z,18.10
2022-10-26T07:34:09.109Z,18.10
2022-10-26T07:37:35.148Z,18.10
2022-10-26T07:40:46.509Z,18.10
2022-10-26T07:43:53.810Z,18.10
2022-10-26T07:47:06.601Z,18.10
2022-10-26T07:50:14.947Z,18.10
2022-10-26T07:53:27.531Z,18.10
2022-10-26T07:56:45.590Z,18.10
2022-10-26T07:59:57.745Z,18.10
2022-10-26T08:03:05.425Z,18.10
2022-10-26T08:06:12.929Z,18.10
2022-10-26T08:09:24.830Z,18.10
2022-10-26T08:12:37.794Z,18.10
2022-10-26T08:15:48.059Z,18.10
2022-10-26T08:18:55.866Z,18.10
2022-10-26T08:22:04.994Z,18.00
2022-10-26T08:25:14.415Z,18.10
2022-10-26T08:28:25.658Z,18.10
2022-10-26T08:31:33.071Z,18.10
2022-10-26T08:34:40.363Z,18.10
2022-10-26T08:37:47.691Z,18.10
2022-10-26T08:40:56.685Z,18.10
2022-10-26T08:44:08.293Z,18.10
2022-10-26T08:50:33.210Z,18.10
2022-10-26T08:53:42.029Z,18.10
2022-10-26T08:56:51.107Z,18.10
2022-10-26T09:00:03.872Z,18.10
2022-10-26T09:03:16.102Z,18.10
2022-10-26T09:06:26.951Z,18.10
2022-10-26T09:09:39.955Z,18.10
2022-10-26T09:12:49.282Z,18.10
2022-10-26T09:16:05.362Z,18.10
2022-10-26T09:19:23.517Z,18.10
2022-10-26T09:22:36.262Z,18.10
2022-10-26T09:25:44.781Z,18.20
2022-10-26T09:28:52.705Z,18.20
2022-10-26T09:32:03.821Z,18.30
2022-10-26T09:35:17.057Z,18.30
2022-10-26T09:38:27.545Z,18.30
2022-10-26T09:41:36.566Z,18.30
2022-10-26T09:44:46.873Z,18.30
2022-10-26T09:47:57.889Z,18.20
2022-10-26T09:51:05.303Z,18.30
2022-10-26T09:54:16.711Z,18.30
2022-10-26T09:57:24.127Z,18.30
2022-10-26T10:00:31.902Z,18.30
2022-10-26T10:03:41.976Z,18.30
2022-10-26T10:06:49.709Z,18.30
2022-10-26T10:10:09.988Z,18.30
2022-10-26T10:13:18.492Z,18.30
2022-10-26T10:16:27.606Z,18.30
2022-10-26T10:19:38.379Z,18.30
2022-10-26T10:22:56.813Z,18.30
2022-10-26T10:26:05.159Z,18.30
2022-10-26T10:29:19.132Z,18.40
2022-10-26T10:32:28.002Z,18.40
2022-10-26T10:35:38.467Z,18.30
2022-10-26T10:38:46.955Z,18.30
2022-10-26T10:41:54.625Z,18.30
2022-10-26T10:45:02.314Z,18.30
2022-10-26T10:48:17.212Z,18.30
2022-10-26T10:51:28.477Z,18.30
2022-10-26T10:54:37.387Z,18.30
2022-10-26T10:57:52.522Z,18.30
2022-10-26T11:01:00.778Z,18.40
2022-10-26T11:04:18.218Z,18.30
2022-10-26T11:07:29.089Z,18.40
2022-10-26T11:10:37.467Z,18.40
2022-10-26T11:13:49.606Z,18.40
2022-10-26T11:17:00.141Z,18.40
2022-10-26T11:20:12.505Z,18.40
2022-10-26T11:23:26.982Z,18.40
2022-10-26T11:26:37.154Z,18.40
2022-10-26T11:29:48.702Z,18.40
2022-10-26T11:32:58.122Z,18.40
2022-10-26T11:36:08.209Z,18.40
2022-10-26T11:39:23.781Z,18.40
2022-10-26T11:42:35.100Z,18.40
2022-10-26T11:45:44.624Z,18.40
2022-10-26T11:48:55.022Z,18.40
2022-10-26T11:52:05.479Z,18.40
2022-10-26T11:55:16.428Z,18.40
2022-10-26T11:58:26.379Z,18.40
2022-10-26T12:01:33.985Z,18.40
2022-10-26T12:04:42.347Z,18.40
2022-10-26T12:07:52.387Z,18.50
2022-10-26T12:11:08.910Z,18.40
2022-10-26T12:14:21.021Z,18.40
2022-10-26T12:17:29.671Z,18.40
2022-10-26T12:20:54.057Z,18.40
2022-10-26T12:24:02.023Z,18.40
2022-10-26T12:27:32.054Z,18.40
2022-10-26T12:30:42.133Z,18.40
2022-10-26T12:33:52.886Z,18.40
2022-10-26T12:37:15.185Z,18.40
2022-10-26T12:40:52.281Z,18.50
2022-10-26T12:44:01.977Z,18.50
2022-10-26T12:47:14.404Z,18.50
2022-10-26T12:50:26.375Z,18.50
2022-10-26T12:53:33.664Z,18.50
2022-10-26T12:56:45.707Z,18.50
2022-10-26T12:59:55.820Z,18.50
2022-10-26T13:03:11.231Z,18.50
2022-10-26T13:06:24.059Z,18.50
2022-10-26T13:09:33.350Z,18.50
2022-10-26T13:12:42.637Z,18.50
2022-10-26T13:15:56.328Z,18.50
2022-10-26T13:19:06.515Z,18.50
2022-10-26T13:22:17.609Z,18.50
2022-10-26T13:25:26.716Z,18.50
2022-10-26T13:28:36.165Z,18.50
2022-10-26T13:31:57.074Z,18.50
2022-10-26T13:35:07.865Z,18.50
2022-10-26T13:38:16.217Z,18.50
2022-10-26T13:41:26.070Z,18.50
2022-10-26T13:44:35.249Z,18.50
2022-10-26T13:47:45.952Z,18.50
2022-10-26T13:54:06.326Z,18.40
2022-10-26T13:57:19.736Z,18.50
2022-10-26T14:00:27.063Z,18.50
2022-10-26T14:03:32.336Z,18.50
2022-10-26T14:06:43.398Z,18.50
2022-10-26T14:09:53.243Z,18.50
2022-10-26T14:13:00.967Z,18.50
2022-10-26T14:16:12.928Z,18.60
2022-10-26T14:19:25.579Z,18.50
2022-10-26T14:22:36.044Z,18.50
2022-10-26T14:25:58.234Z,18.50
2022-10-26T14:29:06.520Z,18.50
2022-10-26T14:32:23.392Z,18.50
2022-10-26T14:35:33.077Z,18.50
2022-10-26T14:38:47.837Z,18.50
2022-10-26T14:41:56.612Z,18.50
2022-10-26T14:45:05.253Z,18.50
2022-10-26T14:48:23.248Z,18.50
2022-10-26T14:51:31.310Z,18.50
2022-10-26T14:54:41.543Z,18.50
2022-10-26T14:57:50.344Z,18.50
2022-10-26T15:01:16.580Z,18.50
2022-10-26T15:04:31.753Z,18.50
2022-10-26T15:07:41.296Z,18.50
2022-10-26T15:10:52.081Z,18.50
2022-10-26T15:13:59.638Z,18.50
2022-10-26T15:17:07.009Z,18.50
2022-10-26T15:20:18.734Z,18.50
2022-10-26T15:23:26.949Z,18.50
2022-10-26T15:26:37.043Z,18.50
2022-10-26T15:29:45.778Z,18.50
2022-10-26T15:32:53.946Z,18.50
2022-10-26T15:36:18.188Z,18.50
2022-10-26T15:39:25.689Z,18.50
2022-10-26T15:42:35.901Z,18.50
2022-10-26T15:45:49.058Z,18.40
2022-10-26T15:48:58.377Z,18.50
2022-10-26T15:55:18.550Z,18.40
2022-10-26T15:58:30.224Z,18.50
2022-10-26T16:01:37.507Z,18.50
2022-10-26T16:04:45.065Z,18.40
2022-10-26T16:07:52.943Z,18.40
2022-10-26T16:11:00.368Z,18.40
2022-10-26T16:14:10.572Z,18.40
2022-10-26T16:17:17.871Z,18.40
2022-10-26T16:20:27.827Z,18.50
2022-10-26T16:23:35.064Z,18.50
2022-10-26T16:26:42.352Z,18.40
2022-10-26T16:29:52.419Z,18.40
2022-10-26T16:32:59.944Z,18.40
2022-10-26T16:36:22.499Z,18.40
2022-10-26T16:39:30.070Z,18.40
2022-10-26T16:42:37.972Z,18.40
2022-10-26T16:45:48.248Z,18.40
2022-10-26T16:48:55.519Z,18.40
2022-10-26T16:52:02.723Z,18.50
2022-10-26T16:55:11.229Z,18.50
2022-10-26T16:58:16.408Z,18.50
2022-10-26T17:01:26.605Z,18.50
2022-10-26T17:04:33.984Z,18.50
2022-10-26T17:07:41.361Z,18.50
2022-10-26T17:10:48.473Z,18.50
2022-10-26T17:13:56.609Z,18.40
2022-10-26T17:17:06.855Z,18.50
2022-10-26T17:20:12.755Z,18.50
2022-10-26T17:23:20.043Z,18.50
2022-10-26T17:26:29.869Z,18.50
2022-10-26T17:29:38.605Z,18.50
2022-10-26T17:32:49.067Z,18.50
2022-10-26T17:35:56.849Z,18.50
2022-10-26T17:39:04.207Z,18.40
2022-10-26T17:42:14.301Z,18.50
2022-10-26T17:45:21.707Z,18.50
2022-10-26T17:48:31.810Z,18.50
2022-10-26T17:51:39.248Z,18.50
2022-10-26T17:54:47.006Z,18.40
2022-10-26T17:57:54.537Z,18.40
2022-10-26T18:01:05.537Z,18.40
2022-10-26T18:04:15.903Z,18.40
2022-10-26T18:07:23.197Z,18.30
2022-10-26T18:10:37.798Z,18.40
2022-10-26T18:13:45.273Z,18.30
2022-10-26T18:16:52.591Z,18.30
2022-10-26T18:20:02.641Z,18.30
2022-10-26T18:23:09.909Z,18.30
2022-10-26T18:26:18.451Z,18.30
2022-10-26T18:29:25.845Z,18.30
2022-10-26T18:32:33.132Z,18.30
2022-10-26T18:35:43.164Z,18.30
2022-10-26T18:38:51.093Z,18.30
2022-10-26T18:41:58.289Z,18.30
2022-10-26T18:45:05.822Z,18.30
2022-10-26T18:48:13.158Z,18.20
2022-10-26T18:51:24.106Z,18.30
2022-10-26T18:54:34.486Z,18.20
2022-10-26T18:57:42.258Z,18.20
2022-10-26T19:00:49.577Z,18.20
2022-10-26T19:03:57.712Z,18.20
2022-10-26T19:07:08.041Z,18.20
2022-10-26T19:10:15.132Z,18.30
2022-10-26T19:13:22.306Z,18.30
2022-10-26T19:16:45.116Z,18.30
2022-10-26T19:19:53.890Z,18.30
2022-10-26T19:23:03.862Z,18.30
2022-10-26T19:26:11.361Z,18.30
2022-10-26T19:29:19.289Z,18.30
2022-10-26T19:32:26.569Z,18.20
2022-10-26T19:38:50.210Z,18.20
2022-10-26T19:41:57.389Z,18.20
2022-10-26T19:45:04.710Z,18.30
2022-10-26T19:48:12.054Z,18.20
2022-10-26T19:51:19.547Z,18.20
2022-10-26T19:54:29.592Z,18.30
2022-10-26T19:57:37.118Z,18.20
2022-10-26T20:00:45.238Z,18.20
2022-10-26T20:03:52.754Z,18.20
2022-10-26T20:07:00.142Z,18.20
2022-10-26T20:10:10.532Z,18.20
2022-10-26T20:13:18.055Z,18.20
2022-10-26T20:16:25.418Z,18.20
2022-10-26T20:19:32.733Z,18.20
2022-10-26T20:22:40.058Z,18.10
2022-10-26T20:25:51.166Z,18.10
2022-10-26T20:28:58.426Z,18.20
2022-10-26T20:32:06.494Z,18.10
2022-10-26T20:35:13.757Z,18.10
2022-10-26T20:38:22.343Z,18.10
2022-10-26T20:41:32.947Z,18.10
2022-10-26T20:44:41.994Z,18.20
2022-10-26T20:47:49.805Z,18.10
2022-10-26T20:50:58.358Z,18.10
2022-10-26T20:54:08.334Z,18.10
2022-10-26T20:57:21.244Z,18.10
2022-10-26T21:00:29.279Z,18.10
2022-10-26T21:03:36.802Z,18.10
2022-10-26T21:06:44.262Z,18.10
2022-10-26T21:09:51.399Z,18.10
2022-10-26T21:13:01.298Z,18.10
2022-10-26T21:16:09.051Z,18.10
2022-10-26T21:19:16.334Z,18.10
2022-10-26T21:22:23.636Z,18.10
2022-10-26T21:25:30.859Z,18.10
2022-10-26T21:28:41.853Z,18.10
2022-10-26T21:31:49.596Z,18.10
2022-10-26T21:34:58.348Z,18.10
2022-10-26T21:38:05.754Z,18.10
2022-10-26T21:41:14.029Z,18.10
2022-10-26T21:44:39.890Z,18.10
2022-10-26T21:47:48.156Z,18.10
2022-10-26T21:50:55.669Z,18.10
2022-10-26T21:54:08.635Z,18.10
2022-10-26T21:57:16.120Z,18.10
2022-10-26T22:00:27.062Z,18.10
2022-10-26T22:03:34.334Z,18.10
2022-10-26T22:06:41.691Z,18.10
2022-10-26T22:10:07.650Z,18.10
2022-10-26T22:13:17.061Z,18.10
2022-10-26T22:16:28.211Z,18.10
2022-10-26T22:19:35.850Z,18.10
2022-10-26T22:22:42.928Z,18.10
2022-10-26T22:25:50.143Z,18.10
2022-10-26T22:28:58.395Z,18.10
2022-10-26T22:32:08.593Z,18.10
2022-10-26T22:35:28.903Z,18.10
2022-10-26T22:38:37.439Z,18.00
2022-10-26T22:41:44.714Z,18.10
2022-10-26T22:44:52.043Z,18.10
2022-10-26T22:48:02.165Z,18.10
2022-10-26T22:51:09.701Z,18.00
2022-10-26T22:54:17.275Z,18.10
2022-10-26T22:57:24.759Z,18.10
2022-10-26T23:00:32.325Z,18.00
2022-10-26T23:03:43.036Z,18.00
2022-10-26T23:06:50.305Z,18.00
2022-10-26T23:09:57.735Z,18.00
2022-10-26T23:13:04.910Z,18.00
2022-10-26T23:16:13.230Z,18.00
2022-10-26T23:19:23.393Z,18.00
2022-10-26T23:22:30.565Z,18.00
2022-10-26T23:25:40.615Z,18.00
2022-10-26T23:28:48.199Z,18.00
2022-10-26T23:31:55.754Z,18.00
2022-10-26T23:35:06.012Z,18.00
2022-10-26T23:38:13.701Z,18.00
2022-10-26T23:41:21.213Z,18.00
2022-10-26T23:44:28.624Z,18.00
2022-10-26T23:47:36.310Z,18.00
2022-10-26T23:50:47.661Z,17.90
2022-10-26T23:53:55.221Z,18.00
2022-10-26T23:57:02.672Z,18.00
